sensor_id;sensor_type;location;lat;lon;timestamp;P1;durP1;ratioP1;P2;durP2;ratioP2
65552;SDS011;52465;51.560;14.368;2023-04-15T00:00:05;5.95;;;5.55;;
65552;SDS011;52465;51.560;14.368;2023-04-15T00:02:32;6.45;;;6.00;;
65552;SDS011;52465;51.560;14.368;2023-04-15T00:04:57;6.88;;;6.28;;
65552;SDS011;52465;51.560;14.368;2023-04-15T00:07:23;6.80;;;6.30;;
65552;SDS011;52465;51.560;14.368;2023-04-15T00:09:49;5.97;;;5.68;;
65552;SDS011;52465;51.560;14.368;2023-04-15T00:12:19;6.20;;;5.80;;
65552;SDS011;52465;51.560;14.368;2023-04-15T00:14:48;6.65;;;6.15;;
65552;SDS011;52465;51.560;14.368;2023-04-15T00:17:14;6.68;;;6.18;;
65552;SDS011;52465;51.560;14.368;2023-04-15T00:19:39;6.38;;;5.88;;
65552;SDS011;52465;51.560;14.368;2023-04-15T00:22:05;6.50;;;6.03;;
65552;SDS011;52465;51.560;14.368;2023-04-15T00:24:31;6.28;;;5.88;;
65552;SDS011;52465;51.560;14.368;2023-04-15T00:26:56;6.57;;;6.13;;
65552;SDS011;52465;51.560;14.368;2023-04-15T00:29:22;6.63;;;6.13;;
65552;SDS011;52465;51.560;14.368;2023-04-15T00:31:48;6.22;;;5.82;;
65552;SDS011;52465;51.560;14.368;2023-04-15T00:34:14;7.05;;;6.55;;
65552;SDS011;52465;51.560;14.368;2023-04-15T00:36:40;6.80;;;6.30;;
65552;SDS011;52465;51.560;14.368;2023-04-15T00:39:06;6.88;;;6.38;;
65552;SDS011;52465;51.560;14.368;2023-04-15T00:41:32;7.30;;;6.70;;
65552;SDS011;52465;51.560;14.368;2023-04-15T00:43:58;6.97;;;6.38;;
65552;SDS011;52465;51.560;14.368;2023-04-15T00:46:25;7.18;;;6.68;;
65552;SDS011;52465;51.560;14.368;2023-04-15T00:48:55;6.72;;;6.20;;
65552;SDS011;52465;51.560;14.368;2023-04-15T00:51:20;7.07;;;6.47;;
65552;SDS011;52465;51.560;14.368;2023-04-15T00:53:46;6.80;;;6.30;;
65552;SDS011;52465;51.560;14.368;2023-04-15T00:56:11;6.82;;;6.32;;
65552;SDS011;52465;51.560;14.368;2023-04-15T00:58:40;6.78;;;6.28;;
65552;SDS011;52465;51.560;14.368;2023-04-15T01:01:09;7.03;;;6.40;;
65552;SDS011;52465;51.560;14.368;2023-04-15T01:03:35;7.28;;;6.63;;
65552;SDS011;52465;51.560;14.368;2023-04-15T01:06:00;6.95;;;6.45;;
65552;SDS011;52465;51.560;14.368;2023-04-15T01:08:27;7.28;;;6.78;;
65552;SDS011;52465;51.560;14.368;2023-04-15T01:10:53;7.20;;;6.60;;
65552;SDS011;52465;51.560;14.368;2023-04-15T01:13:21;6.82;;;6.22;;
65552;SDS011;52465;51.560;14.368;2023-04-15T01:15:48;7.03;;;6.53;;
65552;SDS011;52465;51.560;14.368;2023-04-15T01:18:14;7.32;;;6.72;;
65552;SDS011;52465;51.560;14.368;2023-04-15T01:20:40;7.07;;;6.47;;
65552;SDS011;52465;51.560;14.368;2023-04-15T01:23:06;7.07;;;6.57;;
65552;SDS011;52465;51.560;14.368;2023-04-15T01:25:32;7.60;;;6.95;;
65552;SDS011;52465;51.560;14.368;2023-04-15T01:27:58;7.55;;;6.85;;
65552;SDS011;52465;51.560;14.368;2023-04-15T01:30:24;7.35;;;6.75;;
65552;SDS011;52465;51.560;14.368;2023-04-15T01:32:51;6.60;;;6.10;;
65552;SDS011;52465;51.560;14.368;2023-04-15T01:35:17;7.15;;;6.55;;
65552;SDS011;52465;51.560;14.368;2023-04-15T01:37:43;8.60;;;6.80;;
65552;SDS011;52465;51.560;14.368;2023-04-15T01:40:09;7.60;;;7.00;;
65552;SDS011;52465;51.560;14.368;2023-04-15T01:42:35;7.38;;;6.78;;
65552;SDS011;52465;51.560;14.368;2023-04-15T01:45:01;7.72;;;7.03;;
65552;SDS011;52465;51.560;14.368;2023-04-15T01:47:27;7.63;;;6.93;;
65552;SDS011;52465;51.560;14.368;2023-04-15T01:49:53;8.10;;;7.32;;
65552;SDS011;52465;51.560;14.368;2023-04-15T01:52:19;7.47;;;6.88;;
65552;SDS011;52465;51.560;14.368;2023-04-15T01:54:44;8.00;;;7.35;;
65552;SDS011;52465;51.560;14.368;2023-04-15T01:57:10;7.60;;;7.00;;
65552;SDS011;52465;51.560;14.368;2023-04-15T01:59:36;7.57;;;6.97;;
65552;SDS011;52465;51.560;14.368;2023-04-15T02:02:02;7.68;;;6.97;;
65552;SDS011;52465;51.560;14.368;2023-04-15T02:04:28;8.00;;;7.20;;
65552;SDS011;52465;51.560;14.368;2023-04-15T02:06:53;8.30;;;7.40;;
65552;SDS011;52465;51.560;14.368;2023-04-15T02:09:19;7.25;;;6.65;;
65552;SDS011;52465;51.560;14.368;2023-04-15T02:11:44;7.72;;;6.85;;
65552;SDS011;52465;51.560;14.368;2023-04-15T02:14:10;7.78;;;7.15;;
65552;SDS011;52465;51.560;14.368;2023-04-15T02:16:35;8.52;;;7.68;;
65552;SDS011;52465;51.560;14.368;2023-04-15T02:19:01;7.95;;;7.25;;
65552;SDS011;52465;51.560;14.368;2023-04-15T02:21:28;7.82;;;7.13;;
65552;SDS011;52465;51.560;14.368;2023-04-15T02:23:53;7.95;;;7.25;;
65552;SDS011;52465;51.560;14.368;2023-04-15T02:26:22;7.97;;;7.28;;
65552;SDS011;52465;51.560;14.368;2023-04-15T02:28:49;8.10;;;7.30;;
65552;SDS011;52465;51.560;14.368;2023-04-15T02:31:20;7.90;;;7.30;;
65552;SDS011;52465;51.560;14.368;2023-04-15T02:33:46;7.93;;;7.15;;
65552;SDS011;52465;51.560;14.368;2023-04-15T02:36:12;8.07;;;7.38;;
65552;SDS011;52465;51.560;14.368;2023-04-15T02:38:37;8.00;;;7.30;;
65552;SDS011;52465;51.560;14.368;2023-04-15T02:41:05;8.18;;;7.22;;
65552;SDS011;52465;51.560;14.368;2023-04-15T02:43:30;9.63;;;7.80;;
65552;SDS011;52465;51.560;14.368;2023-04-15T02:45:56;8.18;;;7.38;;
65552;SDS011;52465;51.560;14.368;2023-04-15T02:48:21;7.93;;;7.22;;
65552;SDS011;52465;51.560;14.368;2023-04-15T02:50:49;7.88;;;7.15;;
65552;SDS011;52465;51.560;14.368;2023-04-15T02:53:14;7.80;;;7.10;;
65552;SDS011;52465;51.560;14.368;2023-04-15T02:55:41;8.73;;;7.93;;
65552;SDS011;52465;51.560;14.368;2023-04-15T02:58:06;7.97;;;7.20;;
65552;SDS011;52465;51.560;14.368;2023-04-15T03:00:32;8.07;;;7.38;;
65552;SDS011;52465;51.560;14.368;2023-04-15T03:03:01;8.35;;;7.57;;
65552;SDS011;52465;51.560;14.368;2023-04-15T03:05:30;8.30;;;7.50;;
65552;SDS011;52465;51.560;14.368;2023-04-15T03:07:56;8.20;;;7.47;;
65552;SDS011;52465;51.560;14.368;2023-04-15T03:10:21;8.30;;;7.40;;
65552;SDS011;52465;51.560;14.368;2023-04-15T03:12:47;8.23;;;7.50;;
65552;SDS011;52465;51.560;14.368;2023-04-15T03:15:12;8.27;;;7.47;;
65552;SDS011;52465;51.560;14.368;2023-04-15T03:17:38;7.90;;;7.20;;
65552;SDS011;52465;51.560;14.368;2023-04-15T03:20:06;8.68;;;7.78;;
65552;SDS011;52465;51.560;14.368;2023-04-15T03:22:32;8.30;;;7.47;;
65552;SDS011;52465;51.560;14.368;2023-04-15T03:24:58;8.48;;;7.60;;
65552;SDS011;52465;51.560;14.368;2023-04-15T03:27:24;8.38;;;7.57;;
65552;SDS011;52465;51.560;14.368;2023-04-15T03:29:51;8.05;;;7.35;;
65552;SDS011;52465;51.560;14.368;2023-04-15T03:32:20;8.52;;;7.63;;
65552;SDS011;52465;51.560;14.368;2023-04-15T03:34:45;9.15;;;8.23;;
65552;SDS011;52465;51.560;14.368;2023-04-15T03:37:10;8.93;;;8.02;;
65552;SDS011;52465;51.560;14.368;2023-04-15T03:39:36;8.57;;;7.78;;
65552;SDS011;52465;51.560;14.368;2023-04-15T03:42:02;10.07;;;8.60;;
65552;SDS011;52465;51.560;14.368;2023-04-15T03:44:27;8.60;;;7.80;;
65552;SDS011;52465;51.560;14.368;2023-04-15T03:46:53;7.70;;;7.07;;
65552;SDS011;52465;51.560;14.368;2023-04-15T03:49:19;8.55;;;7.75;;
65552;SDS011;52465;51.560;14.368;2023-04-15T03:51:46;8.85;;;7.65;;
65552;SDS011;52465;51.560;14.368;2023-04-15T03:54:12;8.68;;;7.68;;
65552;SDS011;52465;51.560;14.368;2023-04-15T03:56:39;8.40;;;7.70;;
65552;SDS011;52465;51.560;14.368;2023-04-15T03:59:04;8.93;;;7.40;;
65552;SDS011;52465;51.560;14.368;2023-04-15T04:01:30;8.68;;;7.72;;
65552;SDS011;52465;51.560;14.368;2023-04-15T04:03:56;8.45;;;7.65;;
65552;SDS011;52465;51.560;14.368;2023-04-15T04:06:24;8.88;;;8.02;;
65552;SDS011;52465;51.560;14.368;2023-04-15T04:08:50;9.15;;;8.25;;
65552;SDS011;52465;51.560;14.368;2023-04-15T04:11:16;8.65;;;7.85;;
65552;SDS011;52465;51.560;14.368;2023-04-15T04:13:41;8.63;;;7.68;;
65552;SDS011;52465;51.560;14.368;2023-04-15T04:16:07;9.40;;;8.43;;
65552;SDS011;52465;51.560;14.368;2023-04-15T04:18:32;8.27;;;7.55;;
65552;SDS011;52465;51.560;14.368;2023-04-15T04:20:57;8.90;;;8.00;;
65552;SDS011;52465;51.560;14.368;2023-04-15T04:23:23;9.18;;;8.27;;
65552;SDS011;52465;51.560;14.368;2023-04-15T04:25:48;8.73;;;7.88;;
65552;SDS011;52465;51.560;14.368;2023-04-15T04:28:14;9.15;;;8.25;;
65552;SDS011;52465;51.560;14.368;2023-04-15T04:30:40;8.30;;;7.50;;
65552;SDS011;52465;51.560;14.368;2023-04-15T04:33:05;8.48;;;7.63;;
65552;SDS011;52465;51.560;14.368;2023-04-15T04:35:31;8.27;;;7.47;;
65552;SDS011;52465;51.560;14.368;2023-04-15T04:38:01;8.75;;;7.88;;
65552;SDS011;52465;51.560;14.368;2023-04-15T04:40:26;9.38;;;8.48;;
65552;SDS011;52465;51.560;14.368;2023-04-15T04:42:52;8.73;;;7.93;;
65552;SDS011;52465;51.560;14.368;2023-04-15T04:45:18;8.30;;;7.50;;
65552;SDS011;52465;51.560;14.368;2023-04-15T04:47:44;8.68;;;7.88;;
65552;SDS011;52465;51.560;14.368;2023-04-15T04:50:10;8.93;;;8.13;;
65552;SDS011;52465;51.560;14.368;2023-04-15T04:52:41;8.68;;;7.82;;
65552;SDS011;52465;51.560;14.368;2023-04-15T04:55:08;8.57;;;7.78;;
65552;SDS011;52465;51.560;14.368;2023-04-15T04:57:33;8.63;;;7.82;;
65552;SDS011;52465;51.560;14.368;2023-04-15T05:00:05;8.02;;;7.22;;
65552;SDS011;52465;51.560;14.368;2023-04-15T05:02:32;9.15;;;8.25;;
65552;SDS011;52465;51.560;14.368;2023-04-15T05:04:58;9.27;;;8.35;;
65552;SDS011;52465;51.560;14.368;2023-04-15T05:07:24;9.23;;;8.23;;
65552;SDS011;52465;51.560;14.368;2023-04-15T05:09:50;8.90;;;7.90;;
65552;SDS011;52465;51.560;14.368;2023-04-15T05:12:16;9.02;;;8.07;;
65552;SDS011;52465;51.560;14.368;2023-04-15T05:14:42;7.97;;;7.28;;
65552;SDS011;52465;51.560;14.368;2023-04-15T05:17:08;8.15;;;7.43;;
65552;SDS011;52465;51.560;14.368;2023-04-15T05:19:34;9.10;;;8.30;;
65552;SDS011;52465;51.560;14.368;2023-04-15T05:22:00;8.50;;;7.70;;
65552;SDS011;52465;51.560;14.368;2023-04-15T05:24:26;8.48;;;7.75;;
65552;SDS011;52465;51.560;14.368;2023-04-15T05:26:52;8.65;;;7.85;;
65552;SDS011;52465;51.560;14.368;2023-04-15T05:29:17;8.93;;;8.02;;
65552;SDS011;52465;51.560;14.368;2023-04-15T05:31:43;8.75;;;7.90;;
65552;SDS011;52465;51.560;14.368;2023-04-15T05:34:08;8.52;;;7.75;;
65552;SDS011;52465;51.560;14.368;2023-04-15T05:36:36;7.90;;;7.20;;
65552;SDS011;52465;51.560;14.368;2023-04-15T05:39:02;9.35;;;8.30;;
65552;SDS011;52465;51.560;14.368;2023-04-15T05:41:31;8.88;;;8.07;;
65552;SDS011;52465;51.560;14.368;2023-04-15T05:43:56;8.85;;;7.97;;
65552;SDS011;52465;51.560;14.368;2023-04-15T05:46:21;9.18;;;8.35;;
65552;SDS011;52465;51.560;14.368;2023-04-15T05:48:47;8.23;;;7.53;;
65552;SDS011;52465;51.560;14.368;2023-04-15T05:51:12;8.75;;;7.90;;
65552;SDS011;52465;51.560;14.368;2023-04-15T05:53:38;8.65;;;7.78;;
65552;SDS011;52465;51.560;14.368;2023-04-15T05:56:05;9.00;;;8.10;;
65552;SDS011;52465;51.560;14.368;2023-04-15T05:58:31;8.98;;;8.18;;
65552;SDS011;52465;51.560;14.368;2023-04-15T06:06:23;9.45;;;8.55;;
65552;SDS011;52465;51.560;14.368;2023-04-15T06:08:49;8.27;;;7.53;;
65552;SDS011;52465;51.560;14.368;2023-04-15T06:11:14;8.57;;;7.78;;
65552;SDS011;52465;51.560;14.368;2023-04-15T06:13:40;8.23;;;7.53;;
65552;SDS011;52465;51.560;14.368;2023-04-15T06:16:06;8.32;;;7.63;;
65552;SDS011;52465;51.560;14.368;2023-04-15T06:18:32;9.38;;;8.38;;
65552;SDS011;52465;51.560;14.368;2023-04-15T06:20:58;9.07;;;8.18;;
65552;SDS011;52465;51.560;14.368;2023-04-15T06:23:23;8.25;;;7.55;;
65552;SDS011;52465;51.560;14.368;2023-04-15T06:25:49;9.32;;;8.43;;
65552;SDS011;52465;51.560;14.368;2023-04-15T06:28:14;8.77;;;7.93;;
65552;SDS011;52465;51.560;14.368;2023-04-15T06:30:40;8.40;;;7.70;;
65552;SDS011;52465;51.560;14.368;2023-04-15T06:33:06;8.88;;;8.07;;
65552;SDS011;52465;51.560;14.368;2023-04-15T06:35:31;9.10;;;8.20;;
65552;SDS011;52465;51.560;14.368;2023-04-15T06:37:57;9.35;;;8.40;;
65552;SDS011;52465;51.560;14.368;2023-04-15T06:40:22;8.75;;;7.95;;
65552;SDS011;52465;51.560;14.368;2023-04-15T06:42:47;8.73;;;8.02;;
65552;SDS011;52465;51.560;14.368;2023-04-15T06:45:13;8.60;;;7.70;;
65552;SDS011;52465;51.560;14.368;2023-04-15T06:47:38;8.85;;;8.05;;
65552;SDS011;52465;51.560;14.368;2023-04-15T06:50:08;8.95;;;8.10;;
65552;SDS011;52465;51.560;14.368;2023-04-15T06:52:34;8.93;;;8.20;;
65552;SDS011;52465;51.560;14.368;2023-04-15T06:55:00;9.32;;;8.43;;
65552;SDS011;52465;51.560;14.368;2023-04-15T06:57:26;8.70;;;7.90;;
65552;SDS011;52465;51.560;14.368;2023-04-15T06:59:52;8.90;;;8.10;;
65552;SDS011;52465;51.560;14.368;2023-04-15T07:02:18;8.23;;;7.45;;
65552;SDS011;52465;51.560;14.368;2023-04-15T07:04:44;9.40;;;8.48;;
65552;SDS011;52465;51.560;14.368;2023-04-15T07:07:09;9.00;;;8.13;;
65552;SDS011;52465;51.560;14.368;2023-04-15T07:09:38;8.57;;;7.68;;
65552;SDS011;52465;51.560;14.368;2023-04-15T07:12:22;8.70;;;8.00;;
65552;SDS011;52465;51.560;14.368;2023-04-15T07:14:48;8.18;;;7.40;;
65552;SDS011;52465;51.560;14.368;2023-04-15T07:17:13;8.05;;;7.35;;
65552;SDS011;52465;51.560;14.368;2023-04-15T07:19:39;9.05;;;8.25;;
65552;SDS011;52465;51.560;14.368;2023-04-15T07:22:04;8.68;;;7.93;;
65552;SDS011;52465;51.560;14.368;2023-04-15T07:24:30;8.63;;;7.80;;
65552;SDS011;52465;51.560;14.368;2023-04-15T07:26:56;9.00;;;8.10;;
65552;SDS011;52465;51.560;14.368;2023-04-15T07:29:22;8.00;;;7.28;;
65552;SDS011;52465;51.560;14.368;2023-04-15T07:31:47;8.07;;;7.47;;
65552;SDS011;52465;51.560;14.368;2023-04-15T07:34:14;8.50;;;7.90;;
65552;SDS011;52465;51.560;14.368;2023-04-15T07:36:40;9.07;;;8.18;;
65552;SDS011;52465;51.560;14.368;2023-04-15T07:39:06;8.63;;;7.88;;
65552;SDS011;52465;51.560;14.368;2023-04-15T07:41:32;8.10;;;7.30;;
65552;SDS011;52465;51.560;14.368;2023-04-15T07:43:57;9.13;;;8.32;;
65552;SDS011;52465;51.560;14.368;2023-04-15T07:46:23;8.52;;;7.82;;
65552;SDS011;52465;51.560;14.368;2023-04-15T07:48:51;8.07;;;7.47;;
65552;SDS011;52465;51.560;14.368;2023-04-15T07:51:18;8.48;;;7.78;;
65552;SDS011;52465;51.560;14.368;2023-04-15T07:53:45;8.90;;;8.10;;
65552;SDS011;52465;51.560;14.368;2023-04-15T07:56:12;8.25;;;7.55;;
65552;SDS011;52465;51.560;14.368;2023-04-15T07:58:37;8.35;;;7.63;;
65552;SDS011;52465;51.560;14.368;2023-04-15T08:01:03;9.15;;;8.35;;
65552;SDS011;52465;51.560;14.368;2023-04-15T08:03:29;8.52;;;7.82;;
65552;SDS011;52465;51.560;14.368;2023-04-15T08:05:57;9.13;;;8.35;;
65552;SDS011;52465;51.560;14.368;2023-04-15T08:08:22;8.20;;;7.55;;
65552;SDS011;52465;51.560;14.368;2023-04-15T08:10:49;8.20;;;7.50;;
65552;SDS011;52465;51.560;14.368;2023-04-15T08:13:14;8.65;;;7.75;;
65552;SDS011;52465;51.560;14.368;2023-04-15T08:15:41;8.48;;;7.68;;
65552;SDS011;52465;51.560;14.368;2023-04-15T08:18:06;8.35;;;7.65;;
65552;SDS011;52465;51.560;14.368;2023-04-15T08:20:32;8.35;;;7.55;;
65552;SDS011;52465;51.560;14.368;2023-04-15T08:22:57;8.20;;;7.50;;
65552;SDS011;52465;51.560;14.368;2023-04-15T08:25:23;8.77;;;7.97;;
65552;SDS011;52465;51.560;14.368;2023-04-15T08:27:48;8.10;;;7.43;;
65552;SDS011;52465;51.560;14.368;2023-04-15T08:30:16;7.85;;;7.25;;
65552;SDS011;52465;51.560;14.368;2023-04-15T08:32:44;8.50;;;7.70;;
65552;SDS011;52465;51.560;14.368;2023-04-15T08:35:12;8.18;;;7.47;;
65552;SDS011;52465;51.560;14.368;2023-04-15T08:37:40;7.97;;;7.28;;
65552;SDS011;52465;51.560;14.368;2023-04-15T08:40:07;8.07;;;7.38;;
65552;SDS011;52465;51.560;14.368;2023-04-15T08:42:42;7.88;;;7.18;;
65552;SDS011;52465;51.560;14.368;2023-04-15T08:45:09;7.88;;;7.22;;
65552;SDS011;52465;51.560;14.368;2023-04-15T08:47:40;8.10;;;7.40;;
65552;SDS011;52465;51.560;14.368;2023-04-15T08:50:08;7.88;;;7.07;;
65552;SDS011;52465;51.560;14.368;2023-04-15T08:52:35;7.88;;;7.28;;
65552;SDS011;52465;51.560;14.368;2023-04-15T08:55:01;8.27;;;7.60;;
65552;SDS011;52465;51.560;14.368;2023-04-15T08:57:28;7.75;;;7.05;;
65552;SDS011;52465;51.560;14.368;2023-04-15T08:59:57;7.85;;;7.18;;
65552;SDS011;52465;51.560;14.368;2023-04-15T09:02:23;7.68;;;6.97;;
65552;SDS011;52465;51.560;14.368;2023-04-15T09:04:50;7.60;;;7.00;;
65552;SDS011;52465;51.560;14.368;2023-04-15T09:07:15;7.60;;;7.00;;
65552;SDS011;52465;51.560;14.368;2023-04-15T09:09:41;8.07;;;7.40;;
65552;SDS011;52465;51.560;14.368;2023-04-15T09:12:07;8.20;;;7.40;;
65552;SDS011;52465;51.560;14.368;2023-04-15T09:14:33;7.53;;;6.93;;
65552;SDS011;52465;51.560;14.368;2023-04-15T09:17:00;7.80;;;7.20;;
65552;SDS011;52465;51.560;14.368;2023-04-15T09:19:27;7.38;;;6.80;;
65552;SDS011;52465;51.560;14.368;2023-04-15T09:21:54;7.93;;;7.32;;
65552;SDS011;52465;51.560;14.368;2023-04-15T09:24:24;7.40;;;6.80;;
65552;SDS011;52465;51.560;14.368;2023-04-15T09:26:53;7.60;;;7.00;;
65552;SDS011;52465;51.560;14.368;2023-04-15T09:29:25;8.10;;;7.30;;
65552;SDS011;52465;51.560;14.368;2023-04-15T09:31:53;7.38;;;6.78;;
65552;SDS011;52465;51.560;14.368;2023-04-15T09:34:19;7.43;;;6.82;;
65552;SDS011;52465;51.560;14.368;2023-04-15T09:39:18;7.90;;;7.20;;
65552;SDS011;52465;51.560;14.368;2023-04-15T09:41:44;7.57;;;6.97;;
65552;SDS011;52465;51.560;14.368;2023-04-15T09:44:22;7.68;;;7.07;;
65552;SDS011;52465;51.560;14.368;2023-04-15T09:46:48;7.13;;;6.53;;
65552;SDS011;52465;51.560;14.368;2023-04-15T09:49:14;7.38;;;6.78;;
65552;SDS011;52465;51.560;14.368;2023-04-15T09:51:40;7.22;;;6.63;;
65552;SDS011;52465;51.560;14.368;2023-04-15T09:54:05;7.65;;;6.95;;
65552;SDS011;52465;51.560;14.368;2023-04-15T09:56:36;7.32;;;6.72;;
65552;SDS011;52465;51.560;14.368;2023-04-15T09:59:06;7.40;;;6.75;;
65552;SDS011;52465;51.560;14.368;2023-04-15T10:01:35;7.20;;;6.70;;
65552;SDS011;52465;51.560;14.368;2023-04-15T10:04:04;7.38;;;6.80;;
65552;SDS011;52465;51.560;14.368;2023-04-15T10:06:29;6.65;;;6.25;;
65552;SDS011;52465;51.560;14.368;2023-04-15T10:08:58;7.40;;;6.80;;
65552;SDS011;52465;51.560;14.368;2023-04-15T10:11:27;7.38;;;6.85;;
65552;SDS011;52465;51.560;14.368;2023-04-15T10:13:54;7.07;;;6.38;;
65552;SDS011;52465;51.560;14.368;2023-04-15T10:16:24;7.35;;;6.75;;
65552;SDS011;52465;51.560;14.368;2023-04-15T10:18:55;6.90;;;6.40;;
65552;SDS011;52465;51.560;14.368;2023-04-15T10:21:25;7.03;;;6.53;;
65552;SDS011;52465;51.560;14.368;2023-04-15T10:23:55;7.07;;;6.47;;
65552;SDS011;52465;51.560;14.368;2023-04-15T10:26:22;7.20;;;6.60;;
65552;SDS011;52465;51.560;14.368;2023-04-15T10:28:48;7.30;;;6.70;;
65552;SDS011;52465;51.560;14.368;2023-04-15T10:31:15;7.35;;;6.75;;
65552;SDS011;52465;51.560;14.368;2023-04-15T10:33:42;6.70;;;6.30;;
65552;SDS011;52465;51.560;14.368;2023-04-15T10:36:09;7.00;;;6.50;;
65552;SDS011;52465;51.560;14.368;2023-04-15T10:38:39;7.30;;;6.68;;
65552;SDS011;52465;51.560;14.368;2023-04-15T10:41:19;7.07;;;6.47;;
65552;SDS011;52465;51.560;14.368;2023-04-15T10:46:33;6.75;;;6.25;;
65552;SDS011;52465;51.560;14.368;2023-04-15T10:49:13;7.13;;;6.53;;
65552;SDS011;52465;51.560;14.368;2023-04-15T10:51:41;6.50;;;6.00;;
65552;SDS011;52465;51.560;14.368;2023-04-15T10:54:09;6.88;;;6.38;;
65552;SDS011;52465;51.560;14.368;2023-04-15T10:56:40;6.90;;;6.40;;
65552;SDS011;52465;51.560;14.368;2023-04-15T10:59:08;6.95;;;6.45;;
65552;SDS011;52465;51.560;14.368;2023-04-15T11:07:35;6.88;;;6.38;;
65552;SDS011;52465;51.560;14.368;2023-04-15T11:10:01;7.40;;;6.80;;
65552;SDS011;52465;51.560;14.368;2023-04-15T11:12:34;7.13;;;6.53;;
65552;SDS011;52465;51.560;14.368;2023-04-15T11:17:54;6.70;;;6.30;;
65552;SDS011;52465;51.560;14.368;2023-04-15T11:20:21;6.93;;;6.38;;
65552;SDS011;52465;51.560;14.368;2023-04-15T11:22:48;7.00;;;6.50;;
65552;SDS011;52465;51.560;14.368;2023-04-15T11:25:25;7.15;;;6.65;;
65552;SDS011;52465;51.560;14.368;2023-04-15T11:27:52;6.65;;;6.13;;
65552;SDS011;52465;51.560;14.368;2023-04-15T11:30:21;7.13;;;6.47;;
65552;SDS011;52465;51.560;14.368;2023-04-15T11:32:50;7.18;;;6.68;;
65552;SDS011;52465;51.560;14.368;2023-04-15T11:35:17;7.15;;;6.55;;
65552;SDS011;52465;51.560;14.368;2023-04-15T11:37:43;6.97;;;6.47;;
65552;SDS011;52465;51.560;14.368;2023-04-15T11:40:09;6.95;;;6.45;;
65552;SDS011;52465;51.560;14.368;2023-04-15T11:42:35;7.18;;;6.60;;
65552;SDS011;52465;51.560;14.368;2023-04-15T11:47:33;6.80;;;6.30;;
65552;SDS011;52465;51.560;14.368;2023-04-15T11:52:55;7.53;;;6.82;;
65552;SDS011;52465;51.560;14.368;2023-04-15T11:55:24;7.07;;;6.57;;
65552;SDS011;52465;51.560;14.368;2023-04-15T11:58:04;7.00;;;6.35;;
65552;SDS011;52465;51.560;14.368;2023-04-15T12:00:50;8.25;;;5.95;;
65552;SDS011;52465;51.560;14.368;2023-04-15T12:03:24;7.35;;;6.20;;
65552;SDS011;52465;51.560;14.368;2023-04-15T12:08:52;6.88;;;6.38;;
65552;SDS011;52465;51.560;14.368;2023-04-15T12:11:47;7.38;;;6.68;;
65552;SDS011;52465;51.560;14.368;2023-04-15T12:14:24;7.10;;;6.40;;
65552;SDS011;52465;51.560;14.368;2023-04-15T12:16:50;7.13;;;6.53;;
65552;SDS011;52465;51.560;14.368;2023-04-15T12:19:25;7.18;;;6.50;;
65552;SDS011;52465;51.560;14.368;2023-04-15T12:22:02;7.88;;;7.15;;
65552;SDS011;52465;51.560;14.368;2023-04-15T12:24:36;7.50;;;6.90;;
65552;SDS011;52465;51.560;14.368;2023-04-15T12:27:05;8.23;;;6.88;;
65552;SDS011;52465;51.560;14.368;2023-04-15T12:29:31;7.63;;;6.95;;
65552;SDS011;52465;51.560;14.368;2023-04-15T12:34:37;7.35;;;6.78;;
65552;SDS011;52465;51.560;14.368;2023-04-15T12:37:08;8.50;;;6.78;;
65552;SDS011;52465;51.560;14.368;2023-04-15T12:39:37;8.35;;;7.38;;
65552;SDS011;52465;51.560;14.368;2023-04-15T12:42:05;7.95;;;7.32;;
65552;SDS011;52465;51.560;14.368;2023-04-15T12:44:31;7.97;;;7.30;;
65552;SDS011;52465;51.560;14.368;2023-04-15T12:46:57;7.57;;;7.03;;
65552;SDS011;52465;51.560;14.368;2023-04-15T12:49:23;7.05;;;6.55;;
65552;SDS011;52465;51.560;14.368;2023-04-15T12:51:51;7.47;;;6.95;;
65552;SDS011;52465;51.560;14.368;2023-04-15T12:54:18;7.93;;;7.15;;
65552;SDS011;52465;51.560;14.368;2023-04-15T12:56:45;7.82;;;7.13;;
65552;SDS011;52465;51.560;14.368;2023-04-15T12:59:11;7.15;;;6.57;;
65552;SDS011;52465;51.560;14.368;2023-04-15T13:01:37;7.72;;;7.13;;
65552;SDS011;52465;51.560;14.368;2023-04-15T13:04:03;7.85;;;7.25;;
65552;SDS011;52465;51.560;14.368;2023-04-15T13:06:29;7.15;;;6.65;;
65552;SDS011;52465;51.560;14.368;2023-04-15T13:08:57;7.10;;;6.57;;
65552;SDS011;52465;51.560;14.368;2023-04-15T13:11:24;7.78;;;7.20;;
65552;SDS011;52465;51.560;14.368;2023-04-15T13:13:50;7.68;;;7.07;;
65552;SDS011;52465;51.560;14.368;2023-04-15T13:16:16;7.35;;;6.85;;
65552;SDS011;52465;51.560;14.368;2023-04-15T13:18:42;7.30;;;6.80;;
65552;SDS011;52465;51.560;14.368;2023-04-15T13:21:10;7.22;;;6.72;;
65552;SDS011;52465;51.560;14.368;2023-04-15T13:23:36;7.35;;;6.78;;
65552;SDS011;52465;51.560;14.368;2023-04-15T13:26:02;6.90;;;6.40;;
65552;SDS011;52465;51.560;14.368;2023-04-15T13:28:28;7.20;;;6.40;;
65552;SDS011;52465;51.560;14.368;2023-04-15T13:30:53;6.90;;;6.40;;
65552;SDS011;52465;51.560;14.368;2023-04-15T13:33:19;6.97;;;6.43;;
65552;SDS011;52465;51.560;14.368;2023-04-15T13:35:44;6.97;;;6.47;;
65552;SDS011;52465;51.560;14.368;2023-04-15T13:38:13;7.35;;;6.75;;
65552;SDS011;52465;51.560;14.368;2023-04-15T13:40:38;7.10;;;6.55;;
65552;SDS011;52465;51.560;14.368;2023-04-15T13:43:04;6.82;;;6.32;;
65552;SDS011;52465;51.560;14.368;2023-04-15T13:45:29;7.18;;;6.68;;
65552;SDS011;52465;51.560;14.368;2023-04-15T13:47:55;6.70;;;6.22;;
65552;SDS011;52465;51.560;14.368;2023-04-15T13:50:21;6.93;;;6.43;;
65552;SDS011;52465;51.560;14.368;2023-04-15T13:52:47;7.68;;;6.97;;
65552;SDS011;52465;51.560;14.368;2023-04-15T13:55:15;7.28;;;6.75;;
65552;SDS011;52465;51.560;14.368;2023-04-15T13:57:41;6.95;;;6.45;;
65552;SDS011;52465;51.560;14.368;2023-04-15T14:00:07;7.10;;;6.60;;
65552;SDS011;52465;51.560;14.368;2023-04-15T14:02:32;7.75;;;7.05;;
65552;SDS011;52465;51.560;14.368;2023-04-15T14:04:58;7.35;;;6.40;;
65552;SDS011;52465;51.560;14.368;2023-04-15T14:07:23;6.57;;;6.18;;
65552;SDS011;52465;51.560;14.368;2023-04-15T14:09:49;6.70;;;6.20;;
65552;SDS011;52465;51.560;14.368;2023-04-15T14:12:14;6.72;;;6.25;;
65552;SDS011;52465;51.560;14.368;2023-04-15T14:14:40;6.97;;;6.45;;
65552;SDS011;52465;51.560;14.368;2023-04-15T14:17:06;6.70;;;6.20;;
65552;SDS011;52465;51.560;14.368;2023-04-15T14:19:34;7.07;;;6.53;;
65552;SDS011;52465;51.560;14.368;2023-04-15T14:22:00;6.63;;;6.13;;
65552;SDS011;52465;51.560;14.368;2023-04-15T14:24:28;6.60;;;6.20;;
65552;SDS011;52465;51.560;14.368;2023-04-15T14:26:54;6.95;;;6.38;;
65552;SDS011;52465;51.560;14.368;2023-04-15T14:29:20;7.10;;;6.60;;
65552;SDS011;52465;51.560;14.368;2023-04-15T14:31:46;6.68;;;6.20;;
65552;SDS011;52465;51.560;14.368;2023-04-15T14:34:12;7.13;;;6.53;;
65552;SDS011;52465;51.560;14.368;2023-04-15T14:36:38;7.68;;;7.15;;
65552;SDS011;52465;51.560;14.368;2023-04-15T14:39:03;7.10;;;6.60;;
65552;SDS011;52465;51.560;14.368;2023-04-15T14:41:29;6.78;;;6.18;;
65552;SDS011;52465;51.560;14.368;2023-04-15T14:43:55;7.03;;;6.53;;
65552;SDS011;52465;51.560;14.368;2023-04-15T14:46:20;6.85;;;6.35;;
65552;SDS011;52465;51.560;14.368;2023-04-15T14:48:46;6.47;;;5.97;;
65552;SDS011;52465;51.560;14.368;2023-04-15T14:51:13;6.82;;;6.32;;
65552;SDS011;52465;51.560;14.368;2023-04-15T14:53:38;7.00;;;6.50;;
65552;SDS011;52465;51.560;14.368;2023-04-15T14:56:04;7.20;;;6.60;;
65552;SDS011;52465;51.560;14.368;2023-04-15T14:58:33;6.38;;;5.97;;
65552;SDS011;52465;51.560;14.368;2023-04-15T15:01:01;6.65;;;6.05;;